Time;durP1;ratioP1;P1;durP2;ratioP2;P2;SDS_P1;SDS_P2;PMS_P1;PMS_P2;Temp;Humidity;BMP_temperature;BMP_pressure;BME280_temperature;BME280_humidity;BME280_pressure;Samples;Min_cycle;Max_cycle;Signal;HPM_P1;HPM_P2
2022/10/08 00:01:32;;;;;;;1.05;0.95;;;;;;;12.42;84.79;100150.88;5095136;28;20038;-66
2022/10/08 00:04:02;;;;;;;5.80;2.42;;;;;;;12.40;84.89;100139.78;5095217;28;20085;-66
2022/10/08 00:06:32;;;;;;;1.08;0.98;;;;;;;12.38;84.90;100144.03;5095244;28;20147;-67
2022/10/08 00:09:05;;;;;;;6.22;2.00;;;;;;;12.33;85.09;100145.75;5094947;28;20048;-66
2022/10/08 00:11:39;;;;;;;1.95;1.20;;;;;;;12.30;85.06;100147.44;5094589;28;20066;-67
2022/10/08 00:14:09;;;;;;;2.83;1.05;;;;;;;12.28;85.25;100144.03;5094711;28;20059;-66
2022/10/08 00:16:39;;;;;;;2.13;1.92;;;;;;;12.27;85.18;100142.31;5094722;28;20054;-66
2022/10/08 00:19:12;;;;;;;0.70;0.70;;;;;;;12.22;85.08;100141.47;5095003;28;20072;-66
2022/10/08 00:21:43;;;;;;;2.50;2.00;;;;;;;12.21;85.20;100142.34;5094583;28;20489;-66
2022/10/08 00:24:16;;;;;;;1.05;0.93;;;;;;;12.18;85.16;100142.34;5094520;28;20052;-66
2022/10/08 00:26:45;;;;;;;1.25;1.15;;;;;;;12.21;85.38;100137.22;5094499;28;20051;-66
2022/10/08 00:29:16;;;;;;;0.88;0.73;;;;;;;12.22;85.38;100129.53;5093325;28;20119;-66
2022/10/08 00:31:46;;;;;;;1.63;0.88;;;;;;;12.23;85.03;100141.50;5094763;28;20048;-67
2022/10/08 00:34:18;;;;;;;1.10;1.00;;;;;;;12.21;85.03;100132.09;5094406;28;20044;-66
2022/10/08 00:36:51;;;;;;;1.17;0.82;;;;;;;12.19;85.02;100128.69;5094439;28;20397;-67
2022/10/08 00:39:23;;;;;;;1.58;0.82;;;;;;;12.03;85.02;100107.34;5094616;28;20047;-66
2022/10/08 00:41:54;;;;;;;1.73;1.52;;;;;;;12.15;85.07;100121.84;5094197;28;20130;-66
2022/10/08 00:44:43;;;;;;;2.10;1.45;;;;;;;12.12;85.05;100121.88;5094208;28;20050;-66
2022/10/08 00:47:15;;;;;;;;;;;;;;;12.13;85.13;100123.56;5094589;28;20090;-67
2022/10/08 00:49:44;;;;;;;3.05;1.55;;;;;;;12.12;85.39;100121.88;5094126;28;19927;-66
2022/10/08 00:52:13;;;;;;;3.07;1.57;;;;;;;12.08;84.93;100126.97;5093653;28;20143;-66
2022/10/08 00:54:43;;;;;;;1.37;1.27;;;;;;;12.09;85.03;100115.06;5093954;28;20291;-66
2022/10/08 00:57:12;;;;;;;1.30;1.17;;;;;;;12.07;84.99;100115.03;5093919;28;20291;-66
2022/10/08 00:59:41;;;;;;;1.77;1.10;;;;;;;12.08;85.16;100121.88;5093987;28;20127;-67
2022/10/08 01:02:10;;;;;;;1.42;0.90;;;;;;;12.08;85.17;100119.31;5093851;28;20323;-67
2022/10/08 01:04:40;;;;;;;1.20;1.10;;;;;;;12.05;85.13;100121.84;5093911;28;20044;-66
2022/10/08 01:07:15;;;;;;;0.80;0.80;;;;;;;12.03;85.31;100107.34;5093840;28;20044;-66
2022/10/08 01:09:53;;;;;;;1.17;1.08;;;;;;;12.01;85.33;100104.81;5094447;28;20134;-67
2022/10/08 01:12:33;;;;;;;2.35;1.45;;;;;;;12.03;85.28;100100.53;5093912;28;20497;-66
2022/10/08 01:15:11;;;;;;;0.90;0.90;;;;;;;11.98;84.96;100094.56;5094140;28;20087;-67
2022/10/08 01:17:54;;;;;;;0.68;0.68;;;;;;;12.02;85.26;100106.50;5094101;28;20066;-66
2022/10/08 01:20:38;;;;;;;2.47;1.15;;;;;;;12.02;85.19;100101.38;5093733;28;20040;-66
2022/10/08 01:23:32;;;;;;;0.82;0.80;;;;;;;11.99;85.21;100111.63;5092710;28;20406;-66
2022/10/08 01:26:18;;;;;;;1.50;1.08;;;;;;;11.97;85.30;100095.41;5093618;28;20052;-66
2022/10/08 01:28:55;;;;;;;2.22;1.73;;;;;;;11.96;85.17;100093.72;5093600;28;20052;-66
2022/10/08 01:31:28;;;;;;;0.85;0.85;;;;;;;11.97;85.36;100097.97;5093632;28;20048;-66
2022/10/08 01:34:02;;;;;;;0.73;0.73;;;;;;;11.94;85.34;100098.00;5094162;28;20066;-66
2022/10/08 01:36:37;;;;;;;1.20;0.70;;;;;;;11.91;85.15;100097.97;5093852;28;20055;-67
2022/10/08 01:39:10;;;;;;;0.60;0.57;;;;;;;11.89;85.31;100097.13;5093882;28;20055;-66
2022/10/08 01:41:43;;;;;;;1.58;1.48;;;;;;;11.86;85.16;100094.56;5093831;28;20083;-66
2022/10/08 01:44:16;;;;;;;1.40;1.17;;;;;;;11.82;85.03;100097.97;5093515;28;20048;-66
2022/10/08 01:46:49;;;;;;;0.77;0.77;;;;;;;11.82;85.14;100092.00;5093789;28;20084;-66
2022/10/08 01:49:23;;;;;;;1.75;1.20;;;;;;;11.78;85.00;100086.00;5093440;28;20056;-66
2022/10/08 01:51:55;;;;;;;1.30;0.90;;;;;;;11.79;85.12;100089.44;5093669;28;20406;-66
2022/10/08 01:54:28;;;;;;;3.92;1.45;;;;;;;11.75;85.26;100091.16;5093809;28;20048;-66
2022/10/08 01:57:00;;;;;;;0.52;0.52;;;;;;;11.74;85.16;100084.31;5093657;28;20047;-66
2022/10/08 01:59:34;;;;;;;1.55;1.02;;;;;;;11.71;85.30;100084.31;5092168;28;20041;-66
2022/10/08 02:02:10;;;;;;;2.30;1.58;;;;;;;11.70;85.22;100086.88;5093282;28;20051;-66
2022/10/08 02:04:39;;;;;;;1.25;1.15;;;;;;;11.68;85.26;100089.44;5097093;28;20047;-66
2022/10/08 02:07:10;;;;;;;0.60;0.60;;;;;;;11.67;85.38;100072.34;5097170;28;20050;-67
2022/10/08 02:09:42;;;;;;;0.80;0.57;;;;;;;11.69;85.37;100075.78;5097557;28;20044;-67
2022/10/08 02:12:11;;;;;;;1.10;0.93;;;;;;;11.73;85.54;100067.28;5097131;28;20052;-67
2022/10/08 02:14:43;;;;;;;;;;;;;;;11.78;85.54;100080.06;5097446;28;20059;-67
2022/10/08 02:17:22;;;;;;;0.63;0.60;;;;;;;11.82;85.35;100074.97;5097077;28;19920;-66
2022/10/08 02:19:56;;;;;;;1.05;0.95;;;;;;;11.88;85.73;100072.38;5096926;28;20109;-67
2022/10/08 02:22:32;;;;;;;0.98;0.95;;;;;;;11.78;85.76;100055.31;5096885;28;20040;-67
2022/10/08 02:25:10;;;;;;;2.30;2.13;;;;;;;11.91;85.55;100072.41;5096930;28;20578;-67
2022/10/08 02:27:51;;;;;;;1.75;1.38;;;;;;;11.94;85.56;100072.41;5096032;28;20040;-67
2022/10/08 02:30:23;;;;;;;0.40;0.40;;;;;;;11.96;85.55;100080.94;5096755;28;20044;-67
2022/10/08 02:32:59;;;;;;;2.47;0.80;;;;;;;11.97;85.73;100076.66;5096747;28;20487;-67
2022/10/08 02:35:37;;;;;;;1.38;1.27;;;;;;;11.97;85.64;100071.56;5097040;28;20047;-68
2022/10/08 02:38:11;;;;;;;1.50;1.40;;;;;;;11.95;85.55;100063.88;5095755;28;20052;-67
2022/10/08 02:40:44;;;;;;;1.70;1.33;;;;;;;11.99;85.51;100067.28;5096807;28;20379;-67
2022/10/08 02:43:20;;;;;;;1.25;1.05;;;;;;;11.97;85.65;100067.25;5096563;28;20044;-67
2022/10/08 02:45:58;;;;;;;0.75;0.75;;;;;;;11.99;85.53;100069.84;5096477;28;20477;-68
2022/10/08 02:48:31;;;;;;;0.43;0.43;;;;;;;12.00;85.46;100068.97;5096795;28;20448;-67
2022/10/08 02:51:05;;;;;;;0.90;0.88;;;;;;;12.00;85.42;100069.84;5096313;28;20040;-67
2022/10/08 02:53:38;;;;;;;0.50;0.50;;;;;;;12.01;85.61;100065.56;5096397;28;20490;-67
2022/10/08 02:56:14;;;;;;;1.25;0.90;;;;;;;12.04;85.50;100068.13;5096711;28;20135;-67
2022/10/08 02:58:44;;;;;;;1.17;1.08;;;;;;;12.05;85.75;100064.72;5096294;28;20105;-68
2022/10/08 03:01:25;;;;;;;1.60;0.95;;;;;;;12.05;85.39;100068.13;5096218;28;20072;-67
2022/10/08 03:04:00;;;;;;;2.28;1.38;;;;;;;12.07;85.63;100063.84;5096201;28;20123;-67
2022/10/08 03:06:32;;;;;;;1.17;1.08;;;;;;;12.10;85.56;100053.63;5096136;28;20561;-67
2022/10/08 03:09:02;;;;;;;0.50;0.50;;;;;;;12.09;85.48;100051.91;5096109;28;20044;-66
2022/10/08 03:11:31;;;;;;;1.08;0.90;;;;;;;12.09;85.43;100057.03;5096085;28;20139;-68
2022/10/08 03:14:03;;;;;;;4.60;1.13;;;;;;;12.02;85.49;100060.44;5095148;28;20127;-68
2022/10/08 03:16:39;;;;;;;1.40;0.95;;;;;;;12.00;85.48;100051.94;5095310;28;20066;-68
2022/10/08 03:19:10;;;;;;;1.83;1.23;;;;;;;12.00;85.52;100057.03;5096173;28;20459;-68
2022/10/08 03:21:41;;;;;;;1.58;1.48;;;;;;;12.04;85.67;100051.06;5095835;28;20040;-67
2022/10/08 03:24:12;;;;;;;1.25;1.10;;;;;;;12.07;85.43;100047.66;5095931;28;20070;-68
2022/10/08 03:26:41;;;;;;;0.82;0.80;;;;;;;12.05;85.63;100045.09;5095766;28;20055;-68
2022/10/08 03:29:11;;;;;;;2.75;1.80;;;;;;;12.06;85.59;100041.72;5095697;28;20044;-67
2022/10/08 03:31:41;;;;;;;1.88;1.23;;;;;;;12.09;85.73;100034.00;5095858;28;20038;-68
2022/10/08 03:34:10;;;;;;;2.60;1.42;;;;;;;12.15;85.96;100045.09;5094447;28;20062;-68
2022/10/08 03:36:38;;;;;;;1.25;1.15;;;;;;;12.19;85.78;100036.56;5095544;28;20118;-68
2022/10/08 03:39:07;;;;;;;1.08;0.95;;;;;;;12.19;85.70;100037.41;5094519;28;20043;-67
2022/10/08 03:41:36;;;;;;;1.73;1.63;;;;;;;12.24;85.99;100032.31;5095258;28;20048;-68
2022/10/08 03:44:07;;;;;;;1.30;1.20;;;;;;;12.25;85.79;100032.28;5095427;28;20307;-68
2022/10/08 03:46:36;;;;;;;0.85;0.85;;;;;;;12.32;86.06;100033.13;5094813;28;20048;-68
2022/10/08 03:49:06;;;;;;;1.05;1.02;;;;;;;12.35;86.14;100028.88;5095623;28;20028;-68
2022/10/08 03:51:35;;;;;;;2.25;1.35;;;;;;;12.42;85.96;100034.81;5095191;28;20054;-67
2022/10/08 03:54:04;;;;;;;1.38;1.20;;;;;;;12.24;86.10;99996.47;5095742;28;20433;-67
2022/10/08 03:56:33;;;;;;;23.70;3.77;;;;;;;12.50;86.12;100030.53;5095084;28;20043;-67
2022/10/08 03:59:02;;;;;;;1.00;0.85;;;;;;;12.54;86.32;100030.50;5095333;28;20291;-67
2022/10/08 04:01:31;;;;;;;1.35;1.15;;;;;;;12.56;86.22;100038.19;5094906;28;20123;-68
2022/10/08 04:03:59;;;;;;;14.05;1.23;;;;;;;12.55;86.47;100031.34;5094908;28;20106;-68
2022/10/08 04:06:30;;;;;;;5.55;1.88;;;;;;;12.56;86.28;100027.94;5095019;28;20055;-68
2022/10/08 04:09:00;;;;;;;1.23;1.13;;;;;;;12.56;86.45;100031.34;5094895;28;20060;-68
2022/10/08 04:11:29;;;;;;;1.92;1.00;;;;;;;12.55;86.51;100027.06;5095442;28;20151;-67
2022/10/08 04:13:58;;;;;;;1.27;1.17;;;;;;;12.58;86.67;100031.34;5094784;28;20055;-68
2022/10/08 04:16:26;;;;;;;2.70;1.50;;;;;;;12.57;86.42;100034.78;5094739;28;20044;-68
2022/10/08 04:18:55;;;;;;;4.37;1.83;;;;;;;12.57;86.43;100034.78;5094703;28;20048;-67
2022/10/08 04:21:24;;;;;;;2.65;1.80;;;;;;;12.57;86.48;100030.47;5094567;28;20276;-67
2022/10/08 04:23:55;;;;;;;2.13;1.93;;;;;;;12.57;86.16;100030.47;5094645;28;20379;-68
2022/10/08 04:26:24;;;;;;;2.15;1.17;;;;;;;12.56;86.36;100038.19;5094488;28;20494;-68
2022/10/08 04:28:53;;;;;;;2.42;1.88;;;;;;;12.55;86.29;100037.31;5094588;28;20123;-68
2022/10/08 04:31:23;;;;;;;1.02;0.98;;;;;;;12.57;86.19;100039.91;5094765;28;20062;-67
2022/10/08 04:33:52;;;;;;;2.53;1.92;;;;;;;12.59;86.33;100038.19;5094270;28;20079;-68
2022/10/08 04:36:24;;;;;;;2.67;2.22;;;;;;;12.63;86.36;100035.59;5094897;28;20526;-67
2022/10/08 04:38:54;;;;;;;2.60;1.58;;;;;;;12.65;86.38;100038.16;5094627;28;20056;-67
2022/10/08 04:41:24;;;;;;;2.47;1.58;;;;;;;12.65;86.39;100033.88;5094592;28;20072;-69
2022/10/08 04:43:54;;;;;;;2.30;0.75;;;;;;;12.67;86.37;100036.41;5094504;28;20055;-67
2022/10/08 04:46:23;;;;;;;1.23;1.13;;;;;;;12.69;86.55;100037.28;5094505;28;20466;-67
2022/10/08 04:48:53;;;;;;;1.80;0.98;;;;;;;12.72;86.66;100034.69;5092952;28;20039;-67
2022/10/08 04:51:23;;;;;;;1.00;0.93;;;;;;;12.76;86.52;100036.41;5094098;28;20490;-67
2022/10/08 04:53:56;;;;;;;1.63;1.48;;;;;;;12.78;86.48;100045.81;5094072;28;20047;-67
2022/10/08 04:56:27;;;;;;;1.27;1.17;;;;;;;12.82;86.69;100041.50;5094433;28;20070;-67
2022/10/08 04:58:57;;;;;;;1.25;1.20;;;;;;;12.84;86.74;100044.91;5094067;28;20556;-67
2022/10/08 05:01:28;;;;;;;0.50;0.50;;;;;;;12.87;86.60;100044.03;5093986;28;20131;-67
2022/10/08 05:03:58;;;;;;;1.10;1.00;;;;;;;12.92;86.44;100047.44;5093883;28;20037;-67
2022/10/08 05:06:30;;;;;;;0.60;0.60;;;;;;;12.95;86.50;100047.44;5093943;28;20048;-67
2022/10/08 05:09:02;;;;;;;1.25;1.15;;;;;;;12.97;86.51;100046.56;5093885;28;20066;-67
2022/10/08 05:11:33;;;;;;;1.42;1.33;;;;;;;13.00;86.74;100043.13;5093617;28;20055;-69
2022/10/08 05:14:02;;;;;;;1.50;1.35;;;;;;;12.98;86.77;100038.00;5093755;28;20040;-67
2022/10/08 05:16:31;;;;;;;1.30;1.05;;;;;;;13.03;86.55;100046.53;5093729;28;20051;-67
2022/10/08 05:19:00;;;;;;;1.65;1.52;;;;;;;13.04;86.56;100043.13;5094362;28;20036;-67
2022/10/08 05:21:30;;;;;;;1.67;1.50;;;;;;;13.07;86.85;100043.13;5093684;28;20131;-68
2022/10/08 05:24:03;;;;;;;1.55;1.45;;;;;;;13.09;86.65;100049.09;5093608;28;20071;-67
2022/10/08 05:26:35;;;;;;;1.63;1.50;;;;;;;13.10;86.70;100048.22;5093469;28;20486;-67
2022/10/08 05:29:24;;;;;;;2.97;2.20;;;;;;;13.12;86.55;100051.66;5093458;28;20047;-67
2022/10/08 05:31:52;;;;;;;1.90;1.75;;;;;;;13.13;86.72;100053.34;5092945;28;20046;-67
2022/10/08 05:34:21;;;;;;;2.10;1.35;;;;;;;13.17;86.57;100055.03;5093638;28;20051;-67
2022/10/08 05:36:50;;;;;;;2.67;1.70;;;;;;;13.21;86.80;100050.75;5092908;28;20499;-67
2022/10/08 05:39:20;;;;;;;2.53;1.98;;;;;;;13.28;86.91;100058.41;5096268;28;20044;-68
2022/10/08 05:41:48;;;;;;;4.03;2.60;;;;;;;13.32;86.49;100060.06;5097616;28;20052;-68
2022/10/08 05:44:17;;;;;;;1.33;0.95;;;;;;;13.35;86.53;100060.06;5097459;28;20048;-67
2022/10/08 05:46:45;;;;;;;7.32;1.88;;;;;;;13.40;86.85;100063.44;5097434;28;20046;-67
2022/10/08 05:49:19;;;;;;;0.93;0.88;;;;;;;13.42;86.85;100055.75;5097452;28;20139;-67
2022/10/08 05:51:49;;;;;;;1.58;1.15;;;;;;;13.46;87.03;100059.16;5097753;28;20398;-67
2022/10/08 05:54:20;;;;;;;1.13;0.88;;;;;;;13.47;86.91;100045.44;5097403;28;20482;-67
2022/10/08 05:56:49;;;;;;;1.17;1.10;;;;;;;13.55;87.16;100067.63;5097570;28;20404;-68
2022/10/08 05:59:19;;;;;;;1.85;1.63;;;;;;;13.56;87.06;100061.63;5097330;28;20044;-68
2022/10/08 06:01:48;;;;;;;7.88;1.15;;;;;;;13.60;87.63;100071.03;5097602;28;20101;-67
2022/10/08 06:04:17;;;;;;;0.90;0.75;;;;;;;13.58;87.36;100066.75;5097472;28;20036;-67
2022/10/08 06:06:46;;;;;;;0.90;0.90;;;;;;;13.66;87.29;100070.97;5097163;28;20039;-67
2022/10/08 06:09:17;;;;;;;0.60;0.60;;;;;;;13.68;86.99;100073.50;5097293;28;20044;-68
2022/10/08 06:11:48;;;;;;;1.27;0.80;;;;;;;13.73;87.13;100071.78;5096821;28;20056;-68
2022/10/08 06:14:19;;;;;;;1.20;1.00;;;;;;;13.77;87.05;100074.28;5097234;28;20048;-66
2022/10/08 06:16:48;;;;;;;1.95;1.20;;;;;;;13.79;86.77;100071.75;5097062;28;20066;-67
2022/10/08 06:19:17;;;;;;;3.67;1.20;;;;;;;13.82;86.92;100079.44;5097260;28;20127;-68
2022/10/08 06:21:45;;;;;;;2.00;1.65;;;;;;;13.87;87.04;100080.22;5095752;28;20041;-67
2022/10/08 06:24:14;;;;;;;1.42;1.00;;;;;;;13.88;87.04;100077.66;5096840;28;20048;-67
2022/10/08 06:26:43;;;;;;;0.75;0.73;;;;;;;13.90;86.41;100082.75;5096751;28;20050;-67
2022/10/08 06:29:16;;;;;;;1.67;1.55;;;;;;;13.93;86.35;100085.31;5096628;28;20056;-67
2022/10/08 06:31:45;;;;;;;0.93;0.90;;;;;;;13.95;86.42;100086.16;5096714;28;20040;-68
2022/10/08 06:34:14;;;;;;;1.17;1.08;;;;;;;14.03;86.40;100084.38;5096968;28;20040;-67
2022/10/08 06:36:42;;;;;;;1.30;1.20;;;;;;;14.07;86.39;100089.47;5096849;28;20432;-68
2022/10/08 06:39:13;;;;;;;0.50;0.50;;;;;;;14.13;85.96;100083.44;5096881;28;20044;-67
2022/10/08 06:41:42;;;;;;;1.25;1.15;;;;;;;14.17;85.92;100079.13;5096814;28;20401;-68
2022/10/08 06:44:12;;;;;;;1.20;1.10;;;;;;;14.25;85.77;100088.47;5096560;28;20040;-68
2022/10/08 06:46:42;;;;;;;10.38;3.15;;;;;;;14.29;85.75;100079.88;5085690;28;20297;-68
2022/10/08 06:49:12;;;;;;;0.80;0.80;;;;;;;14.35;85.72;100087.53;5075771;28;20498;-68
2022/10/08 06:51:40;;;;;;;5.22;1.48;;;;;;;14.39;85.60;100084.09;5075126;28;20044;-68
2022/10/08 06:54:09;;;;;;;1.75;1.17;;;;;;;14.45;85.58;100091.72;5075923;28;20041;-68
2022/10/08 06:56:38;;;;;;;0.60;0.60;;;;;;;14.52;84.86;100092.50;5075644;28;20494;-68
2022/10/08 06:59:07;;;;;;;2.47;1.60;;;;;;;14.54;85.11;100096.75;5075963;28;20036;-68
2022/10/08 07:01:36;;;;;;;1.15;0.95;;;;;;;14.64;84.97;100093.22;5075914;28;20078;-68
2022/10/08 07:04:07;;;;;;;1.05;0.93;;;;;;;14.73;84.40;100097.44;5075949;28;20094;-68
2022/10/08 07:06:36;;;;;;;1.00;0.95;;;;;;;14.81;84.24;100094.75;5076134;28;20072;-68
2022/10/08 07:09:05;;;;;;;0.77;0.77;;;;;;;14.86;84.16;100093.00;5075817;28;20071;-68
2022/10/08 07:11:34;;;;;;;1.10;1.00;;;;;;;14.91;84.00;100096.38;5075680;28;20518;-69
2022/10/08 07:14:03;;;;;;;0.65;0.65;;;;;;;14.96;83.39;100094.59;5075831;28;20490;-68
2022/10/08 07:16:32;;;;;;;1.20;1.10;;;;;;;15.03;83.22;100096.22;5075680;28;20044;-68
2022/10/08 07:19:01;;;;;;;1.37;0.93;;;;;;;15.06;83.04;100093.63;5075667;28;20045;-68
2022/10/08 07:21:31;;;;;;;4.32;2.53;;;;;;;15.13;83.30;100088.38;5075548;28;20278;-68
2022/10/08 07:24:00;;;;;;;1.15;1.05;;;;;;;15.23;82.62;100089.97;5075598;28;20055;-68
2022/10/08 07:26:31;;;;;;;;;;;;;;;15.28;82.43;100088.16;5075947;28;20513;-68
2022/10/08 07:29:02;;;;;;;1.13;1.00;;;;;;;15.34;82.02;100092.38;5075594;28;19928;-68
2022/10/08 07:31:32;;;;;;;3.20;2.08;;;;;;;15.39;81.71;100095.75;5075437;28;20115;-68
2022/10/08 07:34:04;;;;;;;0.88;0.77;;;;;;;15.51;81.38;100095.63;5075386;28;20498;-68
2022/10/08 07:36:35;;;;;;;0.73;0.73;;;;;;;15.64;80.88;100101.44;5075673;28;20044;-68
2022/10/08 07:39:06;;;;;;;1.23;1.08;;;;;;;15.77;81.28;100097.81;5075248;28;20044;-68
2022/10/08 07:41:35;;;;;;;2.88;1.38;;;;;;;15.92;80.81;100093.28;5075239;28;20495;-68
2022/10/08 07:44:05;;;;;;;1.10;1.00;;;;;;;16.05;80.44;100094.78;5075074;28;20508;-68
2022/10/08 07:46:34;;;;;;;;;;;;;;;16.14;79.52;100092.94;5075599;28;20036;-68
2022/10/08 07:49:04;;;;;;;2.30;1.65;;;;;;;16.22;79.42;100093.66;5075360;28;19920;-68
2022/10/08 07:51:35;;;;;;;1.73;1.25;;;;;;;16.31;78.89;100096.94;5074965;28;20052;-68
2022/10/08 07:54:06;;;;;;;1.42;1.33;;;;;;;16.34;78.68;100090.88;5074989;28;20051;-68
2022/10/08 07:56:36;;;;;;;1.33;1.23;;;;;;;16.31;78.67;100091.78;5075136;28;20041;-68
2022/10/08 07:59:06;;;;;;;1.27;1.05;;;;;;;16.39;78.07;100099.34;5075186;28;20045;-68
2022/10/08 08:01:34;;;;;;;;;;;;;;;16.48;77.96;100084.59;5075080;28;20052;-68
2022/10/08 08:04:05;;;;;;;1.02;0.93;;;;;;;16.62;77.44;100086.94;5074671;28;19927;-67
2022/10/08 08:06:41;;;;;;;1.50;1.10;;;;;;;16.74;77.12;100087.56;5074675;28;20131;-68
2022/10/08 08:09:11;;;;;;;1.50;0.95;;;;;;;16.84;76.99;100088.25;5074789;28;20037;-68
2022/10/08 08:11:39;;;;;;;0.93;0.88;;;;;;;16.92;76.65;100085.50;5074350;28;20041;-68
2022/10/08 08:14:08;;;;;;;1.73;1.27;;;;;;;16.90;75.75;100087.25;5074845;28;20052;-68
2022/10/08 08:16:37;;;;;;;4.40;1.20;;;;;;;16.77;75.54;100068.63;5074515;28;20498;-68
2022/10/08 08:19:07;;;;;;;1.05;0.77;;;;;;;16.89;75.09;100083.00;5074401;28;20079;-68
2022/10/08 08:21:38;;;;;;;;;;;;;;;16.88;74.88;100079.56;5073906;28;20029;-68
2022/10/08 08:24:09;;;;;;;4.07;2.20;;;;;;;16.93;74.88;100080.31;5074396;28;19969;-68
2022/10/08 08:26:41;;;;;;;1.25;0.95;;;;;;;16.99;74.56;100082.75;5074206;28;20055;-68
2022/10/08 08:29:12;;;;;;;1.13;0.90;;;;;;;17.08;74.27;100082.59;5073326;28;20082;-68
2022/10/08 08:31:43;;;;;;;1.55;1.40;;;;;;;17.24;73.60;100075.38;5074198;28;20067;-68
2022/10/08 08:34:14;;;;;;;1.23;1.15;;;;;;;17.35;73.77;100073.41;5074084;28;20052;-68
2022/10/08 08:36:47;;;;;;;1.27;1.17;;;;;;;17.54;73.24;100073.91;5074128;28;20049;-68
2022/10/08 08:39:18;;;;;;;2.67;0.90;;;;;;;17.72;73.11;100071.72;5074405;28;20053;-68
2022/10/08 08:42:01;;;;;;;2.13;0.93;;;;;;;17.78;72.52;100061.25;5074425;28;20052;-68
2022/10/08 08:44:34;;;;;;;0.77;0.77;;;;;;;17.97;72.03;100074.59;5074338;28;20052;-68
2022/10/08 08:47:10;;;;;;;2.05;1.85;;;;;;;18.14;70.92;100064.66;5073890;28;20055;-68
2022/10/08 08:49:43;;;;;;;0.88;0.85;;;;;;;18.29;70.31;100061.69;5074268;28;20052;-68
2022/10/08 08:52:16;;;;;;;1.02;0.95;;;;;;;18.42;70.17;100064.81;5073813;28;20053;-68
2022/10/08 08:54:48;;;;;;;1.95;1.75;;;;;;;18.64;69.96;100071.97;5074179;28;20052;-68
2022/10/08 08:57:37;;;;;;;1.00;0.90;;;;;;;18.87;69.68;100057.56;5073895;28;20139;-68
2022/10/08 09:00:14;;;;;;;0.83;0.83;;;;;;;18.93;68.88;100062.56;5073950;28;20148;-68
2022/10/08 09:02:52;;;;;;;2.45;2.08;;;;;;;19.03;68.43;100059.66;5073695;28;20285;-68
2022/10/08 09:05:23;;;;;;;1.88;1.70;;;;;;;18.89;67.83;100061.78;5073773;28;20135;-68
2022/10/08 09:08:00;;;;;;;1.23;0.82;;;;;;;18.92;67.58;100060.84;5073595;28;20051;-68
2022/10/08 09:10:36;;;;;;;0.85;0.85;;;;;;;18.91;67.26;100057.41;5073605;28;20047;-68
2022/10/08 09:13:15;;;;;;;0.63;0.63;;;;;;;18.88;67.22;100059.25;5072652;28;20048;-68
2022/10/08 09:15:45;;;;;;;0.55;0.55;;;;;;;18.86;67.22;100066.22;5072682;28;20049;-68
2022/10/08 09:18:16;;;;;;;1.25;1.15;;;;;;;18.86;67.40;100067.03;5073581;28;20490;-68
2022/10/08 09:20:45;;;;;;;0.95;0.70;;;;;;;18.83;67.16;100068.88;5073794;28;20399;-68
2022/10/08 09:23:17;;;;;;;1.55;1.45;;;;;;;18.81;66.82;100062.91;5073460;28;20041;-68
2022/10/08 09:25:53;;;;;;;1.27;1.02;;;;;;;18.83;66.58;100055.94;5073527;28;20044;-68
2022/10/08 09:28:40;;;;;;;1.52;1.10;;;;;;;19.01;66.97;100060.59;5073331;28;20102;-68
2022/10/08 09:31:23;;;;;;;1.02;0.93;;;;;;;19.34;67.22;100062.19;5073456;28;20064;-68
2022/10/08 09:33:58;;;;;;;1.80;1.52;;;;;;;19.67;66.64;100047.41;5073692;28;20048;-68
2022/10/08 09:36:33;;;;;;;1.38;0.93;;;;;;;19.86;65.97;100049.34;5073667;28;20542;-68
2022/10/08 09:39:06;;;;;;;1.10;1.00;;;;;;;19.77;64.36;100059.97;5073274;28;20519;-69
2022/10/08 09:41:35;;;;;;;0.98;0.90;;;;;;;19.70;63.90;100050.72;5073533;28;20494;-68
2022/10/08 09:44:16;;;;;;;0.75;0.73;;;;;;;19.93;63.72;100047.41;5073362;28;20051;-68
2022/10/08 09:46:46;;;;;;;1.60;1.45;;;;;;;20.00;63.13;100036.78;5073244;28;20056;-69
2022/10/08 09:49:27;;;;;;;1.15;1.05;;;;;;;20.19;62.99;100051.69;5073586;28;20044;-69
2022/10/08 09:51:59;;;;;;;1.13;1.02;;;;;;;20.18;62.13;100045.66;5073528;28;20045;-68
2022/10/08 09:54:35;;;;;;;1.60;1.50;;;;;;;20.21;61.98;100039.53;5073459;28;20095;-69
2022/10/08 09:57:06;;;;;;;2.42;1.88;;;;;;;20.27;61.70;100041.97;5074053;28;20490;-68
2022/10/08 09:59:41;;;;;;;1.83;1.38;;;;;;;20.29;61.32;100045.34;5073405;28;20071;-68
2022/10/08 10:02:27;;;;;;;1.30;1.13;;;;;;;20.20;61.63;100045.63;5073190;28;20052;-68
2022/10/08 10:04:58;;;;;;;0.70;0.70;;;;;;;20.15;61.50;100035.41;5073377;28;20479;-68
2022/10/08 10:07:38;;;;;;;2.88;1.70;;;;;;;20.28;61.85;100034.13;5073015;28;20445;-68
2022/10/08 10:10:18;;;;;;;2.50;1.58;;;;;;;20.47;61.48;100036.91;5073156;28;20064;-68
2022/10/08 10:12:53;;;;;;;0.93;0.90;;;;;;;20.63;61.48;100032.88;5073063;28;20063;-68
2022/10/08 10:15:28;;;;;;;1.40;1.30;;;;;;;20.81;60.96;100037.41;5073064;28;20045;-68
2022/10/08 10:18:01;;;;;;;1.88;1.55;;;;;;;20.77;60.45;100024.59;5073262;28;20368;-68
2022/10/08 10:20:36;;;;;;;1.20;1.10;;;;;;;20.76;60.22;100026.34;5072957;28;20139;-68
2022/10/08 10:23:12;;;;;;;2.50;1.95;;;;;;;20.72;59.98;100022.19;5072920;28;20040;-68
2022/10/08 10:25:47;;;;;;;7.00;1.05;;;;;;;20.75;60.32;100032.44;5076140;28;20048;-68
2022/10/08 10:28:23;;;;;;;1.58;1.40;;;;;;;20.76;60.16;100018.56;5077342;28;20356;-69
2022/10/08 10:31:01;;;;;;;1.23;1.13;;;;;;;20.77;59.85;100024.59;5076685;28;20048;-68
2022/10/08 10:33:33;;;;;;;1.50;1.15;;;;;;;20.84;59.86;100026.06;5076597;28;20052;-68
2022/10/08 10:36:09;;;;;;;1.20;1.10;;;;;;;20.95;59.98;100019.56;5076565;28;20494;-68
2022/10/08 10:38:46;;;;;;;0.95;0.85;;;;;;;21.03;59.62;100012.34;5076701;28;20045;-68
2022/10/08 10:41:27;;;;;;;1.27;1.10;;;;;;;21.08;59.06;100012.19;5077040;28;20378;-68
2022/10/08 10:43:59;;;;;;;0.80;0.80;;;;;;;21.10;58.92;100003.44;5076647;28;20132;-69
2022/10/08 10:46:34;;;;;;;2.05;1.30;;;;;;;21.13;58.56;100003.34;5076278;28;20528;-68
2022/10/08 10:49:09;;;;;;;2.50;1.35;;;;;;;21.17;58.68;99999.72;5076446;28;20375;-68
2022/10/08 10:51:50;;;;;;;2.17;1.85;;;;;;;21.20;58.33;99999.59;5076132;28;20047;-69
2022/10/08 10:54:41;;;;;;;1.85;1.10;;;;;;;21.18;58.21;99988.44;5076513;28;20056;-69
2022/10/08 10:57:20;;;;;;;1.45;1.25;;;;;;;21.30;57.65;99994.91;5076140;28;20570;-69
2022/10/08 11:00:02;;;;;;;0.75;0.70;;;;;;;21.30;57.43;99989.69;5076386;28;20048;-69
2022/10/08 11:02:39;;;;;;;2.00;1.67;;;;;;;21.28;57.82;99986.31;5076046;28;20048;-69
2022/10/08 11:05:15;;;;;;;1.48;1.13;;;;;;;21.03;58.14;99991.56;5075937;28;20052;-69
2022/10/08 11:08:00;;;;;;;2.55;1.27;;;;;;;21.17;57.88;99984.13;5076174;28;20075;-69
2022/10/08 11:10:41;;;;;;;3.08;1.83;;;;;;;21.36;57.54;99979.91;5075840;28;20102;-68
2022/10/08 11:13:25;;;;;;;1.30;1.10;;;;;;;21.57;57.49;99977.34;5075698;28;20044;-69
2022/10/08 11:16:06;;;;;;;2.17;1.27;;;;;;;21.53;56.89;99975.78;5075866;28;20520;-69
2022/10/08 11:18:47;;;;;;;1.52;1.25;;;;;;;21.49;56.67;99976.81;5074643;28;20052;-69
2022/10/08 11:21:32;;;;;;;2.63;1.35;;;;;;;21.57;56.49;99966.97;5075636;28;20131;-68
2022/10/08 11:24:24;;;;;;;0.80;0.80;;;;;;;21.58;56.02;99964.31;5075655;28;20049;-68
2022/10/08 11:27:00;;;;;;;1.05;1.02;;;;;;;21.61;56.18;99960.72;5075447;28;20127;-68
2022/10/08 11:29:37;;;;;;;1.13;1.02;;;;;;;21.81;56.42;99965.97;5075920;28;20066;-68
2022/10/08 11:32:12;;;;;;;1.90;1.20;;;;;;;21.80;55.82;99956.47;5075473;28;20048;-68
2022/10/08 11:34:49;;;;;;;0.70;0.70;;;;;;;21.77;55.52;99960.03;5075389;28;20048;-69
2022/10/08 11:37:24;;;;;;;1.38;1.17;;;;;;;21.59;55.88;99954.75;5074726;28;20052;-68
2022/10/08 11:40:03;;;;;;;1.98;1.17;;;;;;;21.64;55.75;99958.00;5075597;28;20041;-68
2022/10/08 11:42:39;;;;;;;1.63;1.52;;;;;;;21.64;55.71;99947.63;5075282;28;20044;-68
2022/10/08 11:45:31;;;;;;;0.70;0.70;;;;;;;21.70;55.74;99949.94;5075147;28;20094;-68
2022/10/08 11:48:01;;;;;;;1.48;1.25;;;;;;;21.89;56.04;99950.91;5075447;28;20106;-68
2022/10/08 11:50:37;;;;;;;1.42;1.15;;;;;;;21.86;55.31;99948.41;5075486;28;20052;-68
2022/10/08 11:53:17;;;;;;;1.70;1.08;;;;;;;21.74;54.99;99944.56;5074928;28;20120;-68